Time;durP1;ratioP1;P1;durP2;ratioP2;P2;SDS_P1;SDS_P2;PMS_P1;PMS_P2;Temp;Humidity;BMP_temperature;BMP_pressure;BME280_temperature;BME280_humidity;BME280_pressure;Samples;Min_cycle;Max_cycle;Signal;HPM_P1;HPM_P2
2023/01/22 00:01:07;;;;;;;30.48;14.25;;;0.30;99.90;;;;;;5085702;28;20036;-62
2023/01/22 00:03:34;;;;;;;33.58;14.80;;;0.30;99.90;;;;;;5061788;28;20040;-60
2023/01/22 00:05:59;;;;;;;31.95;15.18;;;0.30;99.90;;;;;;5064550;28;20480;-61
2023/01/22 00:08:25;;;;;;;30.55;15.25;;;0.20;99.90;;;;;;5066679;28;20093;-61
2023/01/22 00:10:52;;;;;;;34.25;16.45;;;0.20;99.90;;;;;;5084816;28;20086;-61
2023/01/22 00:13:19;;;;;;;31.63;16.55;;;0.20;99.90;;;;;;5085351;28;20031;-62
2023/01/22 00:15:44;;;;;;;32.20;17.50;;;0.20;99.90;;;;;;5050971;28;20046;-62
2023/01/22 00:18:10;;;;;;;32.60;16.63;;;0.10;99.90;;;;;;5084564;28;20526;-60
2023/01/22 00:20:36;;;;;;;35.72;15.30;;;0.10;99.90;;;;;;5085408;28;20767;-61
2023/01/22 00:23:02;;;;;;;40.25;17.92;;;0.10;99.90;;;;;;5085476;28;20105;-60
2023/01/22 00:25:28;;;;;;;41.00;16.92;;;0.00;99.90;;;;;;5085181;28;20400;-61
2023/01/22 00:27:54;;;;;;;33.70;16.60;;;-0.10;99.90;;;;;;5084026;28;20126;-60
2023/01/22 00:30:20;;;;;;;35.40;16.70;;;-0.10;99.90;;;;;;5065129;28;20119;-63
2023/01/22 00:32:46;;;;;;;39.35;17.58;;;-0.20;99.90;;;;;;5065182;28;20123;-63
2023/01/22 00:35:14;;;;;;;32.35;15.85;;;-0.20;99.90;;;;;;5066004;28;20039;-63
2023/01/22 00:37:40;;;;;;;39.47;17.63;;;-0.30;99.90;;;;;;5064135;28;20040;-61
2023/01/22 00:40:06;;;;;;;36.83;18.08;;;-0.30;99.90;;;;;;5077898;28;20752;-62
2023/01/22 00:42:34;;;;;;;36.75;16.95;;;-0.30;99.90;;;;;;5062484;28;20032;-62
2023/01/22 00:45:00;;;;;;;35.60;17.25;;;-0.40;99.90;;;;;;5065254;28;20035;-62
2023/01/22 00:47:25;;;;;;;38.40;17.98;;;-0.40;99.90;;;;;;5083647;28;20047;-63
2023/01/22 00:49:51;;;;;;;38.05;18.20;;;-0.40;99.90;;;;;;5069146;28;20068;-63
2023/01/22 00:52:16;;;;;;;40.83;16.73;;;-0.50;99.90;;;;;;5045232;28;20056;-62
2023/01/22 00:54:42;;;;;;;36.67;16.90;;;-0.50;99.90;;;;;;5064118;28;20090;-61
2023/01/22 00:57:08;;;;;;;32.75;17.90;;;-0.50;99.90;;;;;;5045048;28;20612;-63
2023/01/22 00:59:33;;;;;;;38.78;18.23;;;-0.60;99.90;;;;;;5060712;28;20539;-62
2023/01/22 01:01:59;;;;;;;39.20;17.88;;;-0.60;99.90;;;;;;5073493;28;20617;-62
2023/01/22 01:04:25;;;;;;;39.40;18.23;;;-0.70;99.90;;;;;;5055458;28;20480;-63
2023/01/22 01:06:50;;;;;;;38.13;18.55;;;-0.70;99.90;;;;;;5029152;28;20109;-61
2023/01/22 01:09:19;;;;;;;35.63;18.55;;;-0.70;99.90;;;;;;5064520;28;20132;-60
2023/01/22 01:11:45;;;;;;;38.90;18.30;;;-0.80;99.90;;;;;;5060747;28;20054;-63
2023/01/22 01:14:14;;;;;;;36.25;16.77;;;-0.80;99.90;;;;;;5081882;28;20040;-61
2023/01/22 01:16:42;;;;;;;35.95;18.33;;;-0.90;99.90;;;;;;5084164;28;20105;-60
2023/01/22 01:19:10;;;;;;;37.63;18.05;;;-0.90;99.90;;;;;;5057129;28;20044;-63
2023/01/22 01:21:36;;;;;;;35.75;17.33;;;-0.90;99.90;;;;;;5083955;28;20039;-63
2023/01/22 01:24:01;;;;;;;39.42;18.48;;;-0.90;99.90;;;;;;5060887;28;20048;-61
2023/01/22 01:26:28;;;;;;;37.72;17.27;;;-0.90;99.90;;;;;;5045596;28;20605;-64
2023/01/22 01:28:56;;;;;;;38.88;17.75;;;-0.90;99.90;;;;;;5054932;28;20047;-62
2023/01/22 01:31:24;;;;;;;38.10;17.13;;;-1.00;99.90;;;;;;5066863;28;20241;-61
2023/01/22 01:33:57;;;;;;;39.35;16.65;;;-1.00;99.90;;;;;;5062620;28;20044;-63
2023/01/22 01:36:26;;;;;;;34.42;15.80;;;-1.00;99.90;;;;;;5084656;28;20576;-63
2023/01/22 01:38:55;;;;;;;37.80;17.45;;;-1.10;99.90;;;;;;5081334;28;20048;-62
2023/01/22 01:41:25;;;;;;;35.45;16.08;;;-1.10;99.90;;;;;;5035424;28;20036;-61
2023/01/22 01:44:11;;;;;;;36.30;16.90;;;-1.10;99.90;;;;;;5054331;28;20036;-62
2023/01/22 01:46:48;;;;;;;38.38;18.08;;;-1.20;99.90;;;;;;5065130;28;20047;-63
2023/01/22 01:49:18;;;;;;;44.50;20.17;;;-1.10;99.90;;;;;;5064536;28;20040;-62
2023/01/22 01:51:48;;;;;;;42.55;18.63;;;-1.10;99.90;;;;;;5045082;28;20054;-62
2023/01/22 01:54:17;;;;;;;40.05;17.80;;;-1.00;99.90;;;;;;5063318;28;20134;-64
2023/01/22 01:56:47;;;;;;;38.53;17.10;;;-0.90;99.90;;;;;;5045504;28;20058;-61
2023/01/22 01:59:15;;;;;;;39.60;17.58;;;-0.90;99.90;;;;;;5065015;28;20123;-61
2023/01/22 02:01:43;;;;;;;34.17;17.05;;;-0.80;99.90;;;;;;5045769;28;20097;-62
2023/01/22 02:04:12;;;;;;;37.35;18.02;;;-0.70;99.90;;;;;;5054321;28;20529;-64
2023/01/22 02:06:40;;;;;;;36.40;17.48;;;-0.70;99.90;;;;;;5064925;28;20040;-62
2023/01/22 02:09:06;;;;;;;44.25;17.98;;;-0.60;99.90;;;;;;5083647;28;20040;-62
2023/01/22 02:11:32;;;;;;;34.38;16.33;;;-0.60;99.90;;;;;;5083774;28;20040;-63
2023/01/22 02:14:08;;;;;;;42.25;17.77;;;-0.50;99.90;;;;;;5083029;28;20050;-64
2023/01/22 02:16:33;;;;;;;40.22;16.90;;;-0.50;99.90;;;;;;5083631;28;20740;-62
2023/01/22 02:18:59;;;;;;;38.28;16.77;;;-0.50;99.90;;;;;;5043793;28;20039;-62
2023/01/22 02:21:39;;;;;;;39.25;16.85;;;-0.50;99.90;;;;;;5064248;28;20634;-62
2023/01/22 02:24:15;;;;;;;38.40;16.05;;;-0.40;99.90;;;;;;5064990;28;20282;-61
2023/01/22 02:26:43;;;;;;;37.08;16.83;;;-0.30;99.90;;;;;;5083299;28;20044;-61
2023/01/22 02:29:14;;;;;;;35.75;17.50;;;-0.20;99.90;;;;;;5046057;28;20045;-64
2023/01/22 02:31:41;;;;;;;34.40;16.90;;;-0.20;99.90;;;;;;5045169;28;20072;-62
2023/01/22 02:34:08;;;;;;;33.92;15.52;;;-0.20;99.90;;;;;;5029120;28;20105;-63
2023/01/22 02:36:36;;;;;;;31.63;14.48;;;-0.10;99.90;;;;;;5028026;28;20049;-62
2023/01/22 02:39:03;;;;;;;29.77;14.48;;;-0.10;99.90;;;;;;5044461;28;20037;-63
2023/01/22 02:41:28;;;;;;;32.05;14.73;;;0.00;99.90;;;;;;5063308;28;20404;-62
2023/01/22 02:44:03;;;;;;;30.35;15.02;;;0.00;99.90;;;;;;5069162;28;20306;-63
2023/01/22 02:46:29;;;;;;;31.27;14.82;;;0.10;99.90;;;;;;5083055;28;20051;-61
2023/01/22 02:49:01;;;;;;;28.13;14.13;;;0.10;99.90;;;;;;5082757;28;20032;-64
2023/01/22 02:51:27;;;;;;;28.73;14.00;;;0.10;99.90;;;;;;5082568;28;20279;-62
2023/01/22 02:53:53;;;;;;;25.33;12.60;;;0.20;99.90;;;;;;5064597;28;20544;-64
2023/01/22 02:56:19;;;;;;;26.88;11.77;;;0.20;99.90;;;;;;5081678;28;20063;-62
2023/01/22 02:58:45;;;;;;;22.90;10.80;;;0.20;99.90;;;;;;5083326;28;20048;-63
2023/01/22 03:01:19;;;;;;;18.90;10.05;;;0.20;99.90;;;;;;5083364;28;20548;-62
2023/01/22 03:03:50;;;;;;;20.83;9.95;;;0.30;99.90;;;;;;5064003;28;20039;-61
2023/01/22 03:06:20;;;;;;;21.95;9.45;;;0.30;99.90;;;;;;5081298;28;20035;-63
2023/01/22 03:09:05;;;;;;;16.92;9.60;;;0.40;99.90;;;;;;5063381;28;20435;-62
2023/01/22 03:11:33;;;;;;;19.27;8.55;;;0.40;99.90;;;;;;5059611;28;20090;-63
2023/01/22 03:22:21;;;;;;;23.00;8.75;;;0.50;99.90;;;;;;5064043;28;20071;-62
2023/01/22 03:24:57;;;;;;;18.65;8.50;;;0.50;99.90;;;;;;5082053;28;20078;-63
2023/01/22 03:27:25;;;;;;;17.77;8.75;;;0.50;99.90;;;;;;5061787;28;20098;-61
2023/01/22 03:29:53;;;;;;;18.20;8.30;;;0.50;99.90;;;;;;5060211;28;20070;-62
2023/01/22 03:32:19;;;;;;;18.30;8.57;;;0.60;99.90;;;;;;5064368;28;20119;-62
2023/01/22 03:34:52;;;;;;;16.95;7.28;;;0.60;99.90;;;;;;5068613;28;20048;-61
2023/01/22 03:37:18;;;;;;;17.42;8.20;;;0.60;99.90;;;;;;5060305;28;20243;-61
2023/01/22 03:39:44;;;;;;;19.27;7.72;;;0.60;99.90;;;;;;5072830;28;20071;-60
2023/01/22 03:42:09;;;;;;;15.85;8.07;;;0.60;99.90;;;;;;5083329;28;20544;-61
2023/01/22 03:44:44;;;;;;;15.35;7.72;;;0.60;99.90;;;;;;5067579;28;20047;-62
2023/01/22 03:47:12;;;;;;;17.30;8.35;;;0.70;99.90;;;;;;5067373;28;20040;-63
2023/01/22 03:49:38;;;;;;;13.50;7.60;;;0.70;99.90;;;;;;5045498;28;20126;-63
2023/01/22 03:52:03;;;;;;;16.80;7.50;;;0.70;99.90;;;;;;5065063;28;20098;-62
2023/01/22 03:54:29;;;;;;;17.00;7.88;;;0.60;99.90;;;;;;5047231;28;20116;-62
2023/01/22 03:56:55;;;;;;;16.23;7.55;;;0.60;99.90;;;;;;5046768;28;20049;-61
2023/01/22 03:59:29;;;;;;;18.35;7.43;;;0.60;99.90;;;;;;5084094;28;20114;-61
2023/01/22 04:01:54;;;;;;;13.90;7.30;;;0.60;99.90;;;;;;5085472;28;20028;-62
2023/01/22 04:04:23;;;;;;;14.52;7.10;;;0.70;99.90;;;;;;5084620;28;20097;-62
2023/01/22 04:06:52;;;;;;;14.73;7.57;;;0.70;99.90;;;;;;5084506;28;20071;-61
2023/01/22 04:09:20;;;;;;;16.95;7.65;;;0.70;99.90;;;;;;5065838;28;20056;-63
2023/01/22 04:11:46;;;;;;;13.07;6.68;;;0.70;99.90;;;;;;5065888;28;20065;-61
2023/01/22 04:14:14;;;;;;;13.13;6.20;;;0.70;99.90;;;;;;5085229;28;20048;-61
2023/01/22 04:16:46;;;;;;;13.50;6.53;;;0.70;99.90;;;;;;5085613;28;20093;-60
2023/01/22 04:19:14;;;;;;;12.68;6.05;;;0.80;99.90;;;;;;5084178;28;20040;-62
2023/01/22 04:21:42;;;;;;;17.48;6.85;;;0.70;99.90;;;;;;5065344;28;20063;-62
2023/01/22 04:24:16;;;;;;;14.15;6.18;;;0.80;99.90;;;;;;5065522;28;20045;-61
2023/01/22 04:26:42;;;;;;;13.60;6.72;;;0.80;99.90;;;;;;5065107;28;20047;-62
2023/01/22 04:29:08;;;;;;;13.07;6.05;;;0.70;99.90;;;;;;5075289;28;20035;-62
2023/01/22 04:31:34;;;;;;;15.80;6.60;;;0.80;99.90;;;;;;5085856;28;20044;-60
2023/01/22 04:33:59;;;;;;;11.95;6.50;;;0.80;99.90;;;;;;5077430;28;20060;-62
2023/01/22 04:36:34;;;;;;;13.60;6.82;;;0.80;99.90;;;;;;5064299;28;20186;-62
2023/01/22 04:39:00;;;;;;;16.35;6.70;;;0.70;99.90;;;;;;5065205;28;20135;-62
2023/01/22 04:41:26;;;;;;;14.00;6.28;;;0.80;99.90;;;;;;5046802;28;20052;-62
2023/01/22 04:43:54;;;;;;;14.23;5.90;;;0.80;99.90;;;;;;5081307;28;20119;-61
2023/01/22 04:46:22;;;;;;;15.60;6.63;;;0.80;99.90;;;;;;5085906;28;20165;-62
2023/01/22 04:48:48;;;;;;;16.30;6.63;;;0.70;99.90;;;;;;5060803;28;20089;-61
2023/01/22 04:51:14;;;;;;;13.82;7.10;;;0.80;99.90;;;;;;5063676;28;20040;-64
2023/01/22 04:53:39;;;;;;;13.70;6.85;;;0.80;99.90;;;;;;5084225;28;20713;-64
2023/01/22 04:56:05;;;;;;;13.90;6.75;;;0.70;99.90;;;;;;5065971;28;20459;-63
2023/01/22 04:58:30;;;;;;;17.38;7.68;;;0.80;99.90;;;;;;5082311;28;20036;-61
2023/01/22 05:00:56;;;;;;;15.52;7.20;;;0.70;99.90;;;;;;5085182;28;20110;-63
2023/01/22 05:03:22;;;;;;;13.45;7.03;;;0.70;99.90;;;;;;5066015;28;20047;-63
2023/01/22 05:05:48;;;;;;;15.98;7.00;;;0.70;99.90;;;;;;5065544;28;20043;-62
2023/01/22 05:08:23;;;;;;;16.45;7.53;;;0.70;99.90;;;;;;5084650;28;20039;-64
2023/01/22 05:10:48;;;;;;;15.88;8.07;;;0.70;99.90;;;;;;5083700;28;20040;-61
2023/01/22 05:13:14;;;;;;;15.35;7.45;;;0.70;99.90;;;;;;5084225;28;20213;-62
2023/01/22 05:15:39;;;;;;;15.40;7.25;;;0.70;99.90;;;;;;5083622;28;20036;-62
2023/01/22 05:18:05;;;;;;;16.67;7.68;;;0.70;99.90;;;;;;5083384;28;20556;-64
2023/01/22 05:20:30;;;;;;;13.98;7.20;;;0.70;99.90;;;;;;5057782;28;20071;-60
2023/01/22 05:22:59;;;;;;;17.92;7.57;;;0.60;99.90;;;;;;5065805;28;20394;-61
2023/01/22 05:25:25;;;;;;;16.27;7.55;;;0.60;99.90;;;;;;5065403;28;20079;-61
2023/01/22 05:27:53;;;;;;;16.85;7.43;;;0.60;99.90;;;;;;5065734;28;20549;-63
2023/01/22 05:30:18;;;;;;;19.90;7.75;;;0.60;99.90;;;;;;5083931;28;20142;-64
2023/01/22 05:32:44;;;;;;;13.40;7.60;;;0.60;99.90;;;;;;5084301;28;20067;-62
2023/01/22 05:35:14;;;;;;;15.95;7.30;;;0.60;99.90;;;;;;5064095;28;20044;-63
2023/01/22 05:37:39;;;;;;;17.20;8.05;;;0.60;99.90;;;;;;5065120;28;20051;-62
2023/01/22 05:40:06;;;;;;;17.15;7.90;;;0.50;99.90;;;;;;5070144;28;20041;-62
2023/01/22 05:42:31;;;;;;;16.08;7.65;;;0.50;99.90;;;;;;5061060;28;20036;-64
2023/01/22 05:44:57;;;;;;;15.15;7.78;;;0.50;99.90;;;;;;5079979;28;20088;-61
2023/01/22 05:47:25;;;;;;;17.23;7.75;;;0.50;99.90;;;;;;5084075;28;20440;-63
2023/01/22 05:49:53;;;;;;;14.55;7.97;;;0.50;99.90;;;;;;5078091;28;20319;-63
2023/01/22 05:52:19;;;;;;;15.57;7.85;;;0.50;99.90;;;;;;5063541;28;20048;-61
2023/01/22 05:54:45;;;;;;;18.40;8.55;;;0.50;99.90;;;;;;5045301;28;20148;-61
2023/01/22 05:57:11;;;;;;;16.13;8.73;;;0.50;99.90;;;;;;5045266;28;20060;-63
2023/01/22 05:59:37;;;;;;;18.13;8.55;;;0.50;99.90;;;;;;5066376;28;20514;-62
2023/01/22 06:02:03;;;;;;;17.92;9.02;;;0.50;99.90;;;;;;5045849;28;20045;-61
2023/01/22 06:04:29;;;;;;;18.17;8.45;;;0.50;99.90;;;;;;5064030;28;20040;-62
2023/01/22 06:06:57;;;;;;;16.30;8.35;;;0.50;99.90;;;;;;5062468;28;20549;-62
2023/01/22 06:09:26;;;;;;;18.88;8.98;;;0.50;99.90;;;;;;5054900;28;20036;-62
2023/01/22 06:11:52;;;;;;;22.23;9.65;;;0.50;99.90;;;;;;5062568;28;20052;-62
2023/01/22 06:14:17;;;;;;;17.10;8.70;;;0.40;99.90;;;;;;5048524;28;20039;-61
2023/01/22 06:16:43;;;;;;;17.58;8.93;;;0.40;99.90;;;;;;5082460;28;20039;-62
2023/01/22 06:19:11;;;;;;;16.80;8.68;;;0.40;99.90;;;;;;5083269;28;20123;-63
2023/01/22 06:21:36;;;;;;;15.85;8.82;;;0.40;99.90;;;;;;5081032;28;20135;-61
2023/01/22 06:24:02;;;;;;;19.58;9.00;;;0.40;99.90;;;;;;5083340;28;20119;-61
2023/01/22 06:26:28;;;;;;;17.92;8.98;;;0.40;99.90;;;;;;5082773;28;20470;-61
2023/01/22 06:28:54;;;;;;;16.30;9.88;;;0.40;99.90;;;;;;5082797;28;20040;-63
2023/01/22 06:31:19;;;;;;;16.30;9.05;;;0.30;99.90;;;;;;5065201;28;20040;-63
2023/01/22 06:33:45;;;;;;;16.35;8.90;;;0.30;99.90;;;;;;5064188;28;20088;-62
2023/01/22 06:36:11;;;;;;;16.08;9.07;;;0.30;99.90;;;;;;5063757;28;20040;-61
2023/01/22 06:38:37;;;;;;;16.20;8.32;;;0.30;99.90;;;;;;5059992;28;20051;-62
2023/01/22 06:41:03;;;;;;;17.65;8.73;;;0.30;99.90;;;;;;5062368;28;20746;-60
2023/01/22 06:43:31;;;;;;;18.20;8.40;;;0.30;99.90;;;;;;5061260;28;20064;-61
2023/01/22 06:45:57;;;;;;;16.60;8.30;;;0.30;99.90;;;;;;5083002;28;20128;-62
2023/01/22 06:48:25;;;;;;;17.60;8.57;;;0.30;99.90;;;;;;5082494;28;20165;-61
2023/01/22 06:50:56;;;;;;;18.65;8.38;;;0.30;99.90;;;;;;5079312;28;20136;-62
2023/01/22 06:53:24;;;;;;;15.88;8.93;;;0.20;99.90;;;;;;5082729;28;20112;-62
2023/01/22 06:55:50;;;;;;;18.20;8.32;;;0.20;99.90;;;;;;5063890;28;20850;-60
2023/01/22 06:58:16;;;;;;;15.77;8.27;;;0.20;99.90;;;;;;5063721;28;20642;-60
2023/01/22 07:00:42;;;;;;;15.15;8.25;;;0.20;99.90;;;;;;5064847;28;20044;-61
2023/01/22 07:03:08;;;;;;;17.55;8.48;;;0.20;99.90;;;;;;5082794;28;20077;-62
2023/01/22 07:05:34;;;;;;;19.85;9.25;;;0.20;99.90;;;;;;5045323;28;20414;-62
2023/01/22 07:08:03;;;;;;;15.25;8.75;;;0.20;99.90;;;;;;5062086;28;20043;-61
2023/01/22 07:10:31;;;;;;;16.00;8.77;;;0.20;99.90;;;;;;5080304;28;20057;-62
2023/01/22 07:12:58;;;;;;;20.73;9.30;;;0.20;99.90;;;;;;5082623;28;20044;-61
2023/01/22 07:15:25;;;;;;;17.70;9.65;;;0.20;99.90;;;;;;5082870;28;20082;-60
2023/01/22 07:17:52;;;;;;;19.05;9.45;;;0.20;99.90;;;;;;5062476;28;20045;-61
2023/01/22 07:20:19;;;;;;;15.68;9.40;;;0.20;99.90;;;;;;5065849;28;20047;-62
2023/01/22 07:22:47;;;;;;;17.58;9.93;;;0.20;99.90;;;;;;5086218;28;20389;-61
2023/01/22 07:25:13;;;;;;;17.67;9.75;;;0.20;99.90;;;;;;5068421;28;20077;-63
2023/01/22 07:27:39;;;;;;;16.83;10.07;;;0.20;99.90;;;;;;5085860;28;20036;-61
2023/01/22 07:30:06;;;;;;;14.75;8.85;;;0.20;99.90;;;;;;5068347;28;20059;-62
2023/01/22 07:32:31;;;;;;;24.50;10.63;;;0.20;99.90;;;;;;5081564;28;20032;-61
2023/01/22 07:34:57;;;;;;;17.98;10.27;;;0.10;99.90;;;;;;5080841;28;20058;-60
2023/01/22 07:37:23;;;;;;;16.13;10.13;;;0.20;99.90;;;;;;5085305;28;20040;-62
2023/01/22 07:39:48;;;;;;;16.25;9.98;;;0.10;99.90;;;;;;5084802;28;20418;-62
2023/01/22 07:42:14;;;;;;;15.88;9.65;;;0.10;99.90;;;;;;5068739;28;20047;-62
2023/01/22 07:44:43;;;;;;;15.40;9.48;;;0.10;99.90;;;;;;5051613;28;20041;-61
2023/01/22 07:47:17;;;;;;;23.85;10.30;;;0.10;99.90;;;;;;5066107;28;20099;-62
2023/01/22 07:49:42;;;;;;;18.77;10.02;;;0.10;99.90;;;;;;5078997;28;20071;-61
2023/01/22 07:52:14;;;;;;;21.17;10.45;;;0.10;99.90;;;;;;5086112;28;20043;-61
2023/01/22 07:54:39;;;;;;;16.05;9.68;;;0.10;99.90;;;;;;5086048;28;20407;-61
2023/01/22 07:57:05;;;;;;;17.52;9.98;;;0.10;99.90;;;;;;5067391;28;20525;-61
2023/01/22 07:59:33;;;;;;;17.95;10.20;;;0.10;99.90;;;;;;5085438;28;20048;-62
2023/01/22 08:02:02;;;;;;;17.63;10.18;;;0.10;99.90;;;;;;5085488;28;20044;-62
2023/01/22 08:04:33;;;;;;;18.75;9.95;;;0.10;99.90;;;;;;5065522;28;20090;-62
2023/01/22 08:07:02;;;;;;;17.58;9.70;;;0.10;99.90;;;;;;5084297;28;20079;-63
2023/01/22 08:09:27;;;;;;;18.80;10.65;;;0.10;99.90;;;;;;5084939;28;20113;-62
2023/01/22 08:11:53;;;;;;;17.05;10.50;;;0.10;99.90;;;;;;5085596;28;20040;-62
2023/01/22 08:14:19;;;;;;;18.40;10.35;;;0.10;99.90;;;;;;5056222;28;20119;-63
2023/01/22 08:16:44;;;;;;;19.25;9.65;;;0.10;99.90;;;;;;5064833;28;20068;-61
2023/01/22 08:19:13;;;;;;;18.52;10.30;;;0.10;99.90;;;;;;5068243;28;21655;-62
2023/01/22 08:21:39;;;;;;;19.95;10.57;;;0.10;99.90;;;;;;5066551;28;20041;-62
2023/01/22 08:24:06;;;;;;;20.52;11.18;;;0.10;99.90;;;;;;5014507;28;20166;-61
2023/01/22 08:26:32;;;;;;;22.92;9.98;;;0.20;99.90;;;;;;5074114;28;20498;-60
2023/01/22 08:28:58;;;;;;;21.08;10.02;;;0.20;99.90;;;;;;5085143;28;20040;-61
2023/01/22 08:31:23;;;;;;;21.40;10.07;;;0.20;99.90;;;;;;5085682;28;20189;-61
2023/01/22 08:33:49;;;;;;;19.35;9.05;;;0.20;99.90;;;;;;5063069;28;20190;-63
2023/01/22 08:36:15;;;;;;;17.92;9.30;;;0.20;99.90;;;;;;5082036;28;20395;-61
2023/01/22 08:38:40;;;;;;;18.75;9.43;;;0.20;99.90;;;;;;5084141;28;20040;-62
2023/01/22 08:41:06;;;;;;;15.35;8.50;;;0.20;99.90;;;;;;5065170;28;20520;-61
2023/01/22 08:43:34;;;;;;;19.73;9.20;;;0.20;99.90;;;;;;5040056;28;20039;-62
2023/01/22 08:46:00;;;;;;;17.42;9.63;;;0.20;99.90;;;;;;5048081;28;20043;-61
2023/01/22 08:48:26;;;;;;;22.83;9.80;;;0.20;99.90;;;;;;5084075;28;20036;-61
2023/01/22 08:50:51;;;;;;;17.85;8.80;;;0.20;99.90;;;;;;5066874;28;20251;-62
2023/01/22 08:53:17;;;;;;;14.95;8.52;;;0.20;99.90;;;;;;5084716;28;20124;-63
2023/01/22 08:55:48;;;;;;;16.88;9.38;;;0.20;99.90;;;;;;5065871;28;20547;-61
2023/01/22 08:58:19;;;;;;;18.45;9.02;;;0.30;99.90;;;;;;5084107;28;20662;-64
2023/01/22 09:00:48;;;;;;;15.77;9.52;;;0.30;99.90;;;;;;5085054;28;20562;-61
2023/01/22 09:03:13;;;;;;;15.82;8.98;;;0.30;99.90;;;;;;5085045;28;20088;-60
2023/01/22 09:05:39;;;;;;;20.30;8.75;;;0.30;99.90;;;;;;5079210;28;20624;-61
2023/01/22 09:08:06;;;;;;;15.82;8.82;;;0.30;99.90;;;;;;5084183;28;20078;-62
2023/01/22 09:10:32;;;;;;;16.08;8.98;;;0.30;99.90;;;;;;5083398;28;20069;-62
2023/01/22 09:13:01;;;;;;;18.15;8.93;;;0.30;99.90;;;;;;5079012;28;20113;-60
2023/01/22 09:15:27;;;;;;;17.85;9.02;;;0.30;99.90;;;;;;5083835;28;20054;-60
2023/01/22 09:17:55;;;;;;;21.38;10.27;;;0.30;99.90;;;;;;5084929;28;20129;-61
2023/01/22 09:20:21;;;;;;;14.75;9.05;;;0.40;99.90;;;;;;5075394;28;20692;-60
2023/01/22 09:22:47;;;;;;;16.77;9.60;;;0.40;99.90;;;;;;5064218;28;20135;-60
2023/01/22 09:25:14;;;;;;;16.73;9.27;;;0.40;99.90;;;;;;5065186;28;20720;-61
2023/01/22 09:27:40;;;;;;;17.23;9.20;;;0.40;99.90;;;;;;5063707;28;20048;-62
2023/01/22 09:30:08;;;;;;;16.45;8.77;;;0.40;99.90;;;;;;5083717;28;20058;-62
2023/01/22 09:32:34;;;;;;;19.52;9.15;;;0.50;99.90;;;;;;5065922;28;20321;-60
2023/01/22 09:35:00;;;;;;;16.92;9.30;;;0.50;99.90;;;;;;5074942;28;20038;-61
2023/01/22 09:37:26;;;;;;;15.38;8.70;;;0.60;99.90;;;;;;5064364;28;20047;-61
2023/01/22 09:39:52;;;;;;;15.50;8.35;;;0.70;99.90;;;;;;5063858;28;20427;-62
2023/01/22 09:42:29;;;;;;;18.25;9.40;;;0.70;99.90;;;;;;5082999;28;20043;-63
2023/01/22 09:45:00;;;;;;;46.88;25.55;;;0.70;99.90;;;;;;5082365;28;20036;-61
2023/01/22 09:47:43;;;;;;;34.45;16.65;;;0.70;99.90;;;;;;5081259;28;20117;-61
2023/01/22 09:50:30;;;;;;;16.98;9.10;;;0.80;99.90;;;;;;5065151;28;20051;-62
2023/01/22 09:53:00;;;;;;;23.58;12.05;;;0.70;99.90;;;;;;5083671;28;20035;-61
2023/01/22 09:55:35;;;;;;;16.92;9.25;;;0.70;99.90;;;;;;5061238;28;20029;-60
2023/01/22 09:58:04;;;;;;;23.85;14.15;;;0.80;99.90;;;;;;5063533;28;20187;-62
2023/01/22 10:00:36;;;;;;;20.45;12.10;;;0.80;99.90;;;;;;5065251;28;20115;-62
2023/01/22 10:03:09;;;;;;;17.40;10.20;;;0.80;99.90;;;;;;5084257;28;20086;-63
2023/01/22 10:05:39;;;;;;;18.55;10.13;;;0.80;99.90;;;;;;5083310;28;20036;-62
2023/01/22 10:08:16;;;;;;;21.83;11.27;;;0.80;99.90;;;;;;5083865;28;20047;-62
2023/01/22 10:10:42;;;;;;;22.33;10.98;;;0.80;99.90;;;;;;5075884;28;20052;-62
2023/01/22 10:13:26;;;;;;;18.85;10.60;;;0.90;99.90;;;;;;5063605;28;20446;-64
2023/01/22 10:15:56;;;;;;;19.45;10.48;;;0.90;99.90;;;;;;5063643;28;20037;-63
2023/01/22 10:18:38;;;;;;;18.33;11.02;;;1.10;99.90;;;;;;5047127;28;20131;-61
2023/01/22 10:21:13;;;;;;;19.67;10.82;;;1.10;99.90;;;;;;5082803;28;20174;-61
2023/01/22 10:23:41;;;;;;;21.67;11.40;;;1.20;99.90;;;;;;5084321;28;20044;-63
2023/01/22 10:26:24;;;;;;;18.25;11.32;;;1.20;99.90;;;;;;5064557;28;20067;-62
2023/01/22 10:28:54;;;;;;;18.58;9.80;;;1.20;99.90;;;;;;5063977;28;20040;-64
2023/01/22 10:31:33;;;;;;;17.10;9.93;;;1.20;99.90;;;;;;5063273;28;20044;-61
2023/01/22 10:34:10;;;;;;;18.80;10.60;;;1.20;99.90;;;;;;5052870;28;20495;-63
2023/01/22 10:36:53;;;;;;;16.35;8.80;;;1.30;99.90;;;;;;5080811;28;20115;-61
2023/01/22 10:39:19;;;;;;;17.23;10.00;;;1.30;99.90;;;;;;5063968;28;20033;-63
2023/01/22 10:41:47;;;;;;;17.63;9.82;;;1.30;99.90;;;;;;5064831;28;20260;-62
2023/01/22 10:44:22;;;;;;;16.55;9.75;;;1.40;99.90;;;;;;5082818;28;20101;-64
2023/01/22 10:46:49;;;;;;;17.55;10.05;;;1.40;99.90;;;;;;5064974;28;20106;-62
2023/01/22 10:49:26;;;;;;;16.20;9.75;;;1.40;99.90;;;;;;5081935;28;20046;-62
2023/01/22 10:51:56;;;;;;;18.13;9.35;;;1.30;99.90;;;;;;5064247;28;20094;-62
2023/01/22 10:54:33;;;;;;;16.45;9.65;;;1.40;99.90;;;;;;5066827;28;20044;-62
2023/01/22 10:57:20;;;;;;;19.23;10.45;;;1.40;99.90;;;;;;5066930;28;20563;-62
2023/01/22 11:00:03;;;;;;;24.77;11.07;;;1.50;99.90;;;;;;5062543;28;20551;-62
2023/01/22 11:02:28;;;;;;;21.40;11.00;;;1.50;99.90;;;;;;5065586;28;20041;-61
2023/01/22 11:04:54;;;;;;;22.63;10.93;;;1.50;99.90;;;;;;5080124;28;20094;-64
2023/01/22 11:07:28;;;;;;;17.17;9.77;;;1.50;99.90;;;;;;5068517;28;20113;-62
2023/01/22 11:10:21;;;;;;;18.48;9.77;;;1.50;99.90;;;;;;5051442;28;20055;-63
2023/01/22 11:13:08;;;;;;;22.05;10.48;;;1.60;99.90;;;;;;5067891;28;20134;-62
2023/01/22 11:15:50;;;;;;;20.42;10.85;;;1.50;99.90;;;;;;5068486;28;20100;-63
2023/01/22 11:18:34;;;;;;;15.82;9.73;;;1.60;99.90;;;;;;5050095;28;20138;-63
2023/01/22 11:21:03;;;;;;;22.52;10.93;;;1.60;99.90;;;;;;5049149;28;20036;-63
2023/01/22 11:23:37;;;;;;;17.42;10.18;;;1.70;99.90;;;;;;5066809;28;20668;-62
2023/01/22 11:26:32;;;;;;;20.40;10.48;;;1.80;99.90;;;;;;5065496;28;20116;-61
2023/01/22 11:29:23;;;;;;;17.90;9.73;;;1.90;99.90;;;;;;5072296;28;20380;-64
2023/01/22 11:32:03;;;;;;;16.88;9.82;;;2.00;99.90;;;;;;5068720;28;20047;-62
2023/01/22 11:34:45;;;;;;;14.90;8.50;;;2.20;99.90;;;;;;5067032;28;20036;-64
2023/01/22 11:37:19;;;;;;;18.15;9.13;;;2.20;99.90;;;;;;5067508;28;20040;-64
2023/01/22 11:39:48;;;;;;;16.27;9.90;;;2.20;99.90;;;;;;5067696;28;20087;-62
2023/01/22 11:42:52;;;;;;;18.92;10.02;;;2.10;99.90;;;;;;5086398;28;20039;-64
2023/01/22 11:45:26;;;;;;;18.52;9.25;;;2.00;99.90;;;;;;5085972;28;20043;-63
2023/01/22 11:48:33;;;;;;;15.73;8.90;;;1.90;99.90;;;;;;5068314;28;20079;-64
2023/01/22 11:51:27;;;;;;;18.50;8.82;;;1.90;99.90;;;;;;5061774;28;20048;-63
2023/01/22 11:54:05;;;;;;;15.75;9.63;;;1.90;99.90;;;;;;5068167;28;20055;-64
2023/01/22 11:56:58;;;;;;;20.77;9.95;;;1.90;99.90;;;;;;5085689;28;20537;-64
2023/01/22 12:00:02;;;;;;;17.35;9.90;;;2.00;99.90;;;;;;5085175;28;20052;-62
2023/01/22 12:02:50;;;;;;;17.83;10.13;;;2.00;99.90;;;;;;5051034;28;20371;-64
2023/01/22 12:05:44;;;;;;;18.73;9.98;;;1.90;99.90;;;;;;5051334;28;20040;-64
2023/01/22 12:08:35;;;;;;;18.10;9.68;;;1.90;99.90;;;;;;5048876;28;20036;-63
2023/01/22 12:11:18;;;;;;;20.90;10.43;;;1.90;99.90;;;;;;5041817;28;20503;-63
2023/01/22 12:14:13;;;;;;;22.55;11.23;;;1.80;99.90;;;;;;5082464;28;20044;-63
2023/01/22 12:17:10;;;;;;;18.45;10.10;;;1.80;99.90;;;;;;5047567;28;20094;-63
2023/01/22 12:19:57;;;;;;;17.33;9.82;;;1.80;99.90;;;;;;5075908;28;20040;-61
2023/01/22 12:22:54;;;;;;;15.27;8.63;;;1.80;99.90;;;;;;5085379;28;20418;-60
2023/01/22 12:25:32;;;;;;;21.75;9.35;;;1.70;99.90;;;;;;5066826;28;20050;-63
2023/01/22 12:28:03;;;;;;;18.90;9.68;;;1.70;99.90;;;;;;5062237;28;20123;-62
2023/01/22 12:31:07;;;;;;;14.55;9.32;;;1.80;99.90;;;;;;5084665;28;20507;-59
2023/01/22 12:33:40;;;;;;;16.63;9.30;;;1.80;99.90;;;;;;5008567;28;20056;-61
2023/01/22 12:36:09;;;;;;;16.58;9.57;;;1.80;99.90;;;;;;5057680;28;20055;-62
2023/01/22 12:38:54;;;;;;;16.60;9.50;;;1.80;99.90;;;;;;5065796;28;20104;-61
2023/01/22 12:41:44;;;;;;;18.58;9.20;;;1.80;99.90;;;;;;5066076;28;20746;-61
2023/01/22 12:44:29;;;;;;;14.82;8.57;;;1.80;99.90;;;;;;5065422;28;20040;-59
2023/01/22 12:47:33;;;;;;;17.73;8.52;;;1.80;99.90;;;;;;5084393;28;20083;-61
2023/01/22 12:50:15;;;;;;;19.90;9.77;;;1.80;99.90;;;;;;5035992;28;20123;-61
2023/01/22 12:52:41;;;;;;;16.35;8.82;;;1.80;99.90;;;;;;5084273;28;20039;-61
2023/01/22 12:55:30;;;;;;;21.00;9.90;;;1.80;99.90;;;;;;5084200;28;20051;-61
2023/01/22 12:57:58;;;;;;;18.55;9.45;;;1.80;99.90;;;;;;5084230;28;20055;-62
2023/01/22 13:00:35;;;;;;;17.08;10.20;;;1.90;99.90;;;;;;5043235;28;20335;-61
2023/01/22 13:03:27;;;;;;;20.45;9.85;;;1.90;99.90;;;;;;5061480;28;20681;-63
2023/01/22 13:05:57;;;;;;;17.70;9.60;;;1.90;99.90;;;;;;5043335;28;20112;-60